createdAt,value
2018-11-12T00:00:47.545Z,5.55
2018-11-12T00:03:15.614Z,5.03
2018-11-12T00:05:43.685Z,5.25
2018-11-12T00:08:11.753Z,5.17
2018-11-12T00:10:39.830Z,5.00
2018-11-12T00:13:07.998Z,4.92
2018-11-12T00:15:36.070Z,4.40
2018-11-12T00:18:04.242Z,4.17
2018-11-12T00:20:32.418Z,3.50
2018-11-12T00:23:00.591Z,3.92
2018-11-12T00:25:28.658Z,4.05
2018-11-12T00:27:56.834Z,4.42
2018-11-12T00:30:25.006Z,3.70
2018-11-12T00:32:53.278Z,3.87
2018-11-12T00:35:21.455Z,3.80
2018-11-12T00:37:49.622Z,3.90
2018-11-12T00:40:18.112Z,3.62
2018-11-12T00:42:46.684Z,3.70
2018-11-12T00:45:15.172Z,3.33
2018-11-12T00:47:44.257Z,3.33
2018-11-12T00:50:13.453Z,3.67
2018-11-12T00:52:41.634Z,2.58
2018-11-12T00:55:11.345Z,3.05
2018-11-12T00:57:39.927Z,2.90
2018-11-12T01:03:01.156Z,3.15
2018-11-12T01:05:29.217Z,2.60
2018-11-12T01:07:57.385Z,2.27
2018-11-12T01:10:25.573Z,2.85
2018-11-12T01:12:53.649Z,1.87
2018-11-12T01:15:21.713Z,2.20
2018-11-12T01:17:50.068Z,2.45
2018-11-12T01:20:18.249Z,2.33
2018-11-12T01:22:46.326Z,2.45
2018-11-12T01:25:15.102Z,2.10
2018-11-12T01:27:43.714Z,2.50
2018-11-12T01:30:15.337Z,2.70
2018-11-12T01:32:43.634Z,2.12
2018-11-12T01:35:12.837Z,2.05
2018-11-12T01:37:40.905Z,2.10
2018-11-12T01:40:10.408Z,1.85
2018-11-12T01:42:38.484Z,2.02
2018-11-12T01:45:08.804Z,2.10
2018-11-12T01:47:36.872Z,1.80
2018-11-12T01:50:06.584Z,1.95
2018-11-12T01:52:34.652Z,2.12
2018-11-12T01:55:02.825Z,1.87
2018-11-12T01:57:30.861Z,1.90
2018-11-12T01:59:58.865Z,2.35
2018-11-12T02:02:26.937Z,1.70
2018-11-12T02:04:55.069Z,2.58
2018-11-12T02:07:23.179Z,1.67
2018-11-12T02:09:51.250Z,1.87
2018-11-12T02:12:19.320Z,1.65
2018-11-12T02:14:47.396Z,1.80
2018-11-12T02:17:15.462Z,2.00
2018-11-12T02:19:43.532Z,1.82
2018-11-12T02:22:11.706Z,1.70
2018-11-12T02:24:39.774Z,2.37
2018-11-12T02:27:07.820Z,1.50
2018-11-12T02:29:35.819Z,1.52
2018-11-12T02:32:03.989Z,1.52
2018-11-12T02:34:32.068Z,1.60
2018-11-12T02:37:00.094Z,1.30
2018-11-12T02:39:28.098Z,1.50
2018-11-12T02:41:56.167Z,1.60
2018-11-12T02:44:24.239Z,1.77
2018-11-12T02:46:52.309Z,1.85
2018-11-12T02:49:20.381Z,1.65
2018-11-12T02:51:48.451Z,1.55
2018-11-12T02:54:16.533Z,1.47
2018-11-12T02:56:44.591Z,2.33
2018-11-12T02:59:12.716Z,1.62
2018-11-12T03:01:40.837Z,1.72
2018-11-12T03:04:08.909Z,1.45
2018-11-12T03:06:36.975Z,1.70
2018-11-12T03:09:10.683Z,1.70
2018-11-12T03:11:38.749Z,1.40
2018-11-12T03:14:06.822Z,1.62
2018-11-12T03:16:34.894Z,1.25
2018-11-12T03:19:03.067Z,1.85
2018-11-12T03:21:31.144Z,1.57
2018-11-12T03:23:59.246Z,1.37
2018-11-12T03:26:27.277Z,1.20
2018-11-12T03:28:55.388Z,1.30
2018-11-12T03:31:23.519Z,1.10
2018-11-12T03:33:51.591Z,1.50
2018-11-12T03:36:19.661Z,1.20
2018-11-12T03:38:47.769Z,1.50
2018-11-12T03:41:15.805Z,1.40
2018-11-12T03:43:43.875Z,1.77
2018-11-12T03:46:11.944Z,1.50
2018-11-12T03:48:40.015Z,1.50
2018-11-12T03:51:08.084Z,1.32
2018-11-12T03:53:36.188Z,1.75
2018-11-12T03:56:04.943Z,2.08
2018-11-12T03:58:33.027Z,2.45
2018-11-12T04:01:01.083Z,2.10
2018-11-12T04:03:29.259Z,2.40
2018-11-12T04:05:57.430Z,1.80
2018-11-12T04:08:25.502Z,2.10
2018-11-12T04:10:53.575Z,1.40
2018-11-12T04:13:21.642Z,1.60
2018-11-12T04:15:49.818Z,1.57
2018-11-12T04:18:17.887Z,1.65
2018-11-12T04:20:45.958Z,1.62
2018-11-12T04:23:14.130Z,1.98
2018-11-12T04:25:42.207Z,1.92
2018-11-12T04:28:10.393Z,1.85
2018-11-12T04:30:38.444Z,1.92
2018-11-12T04:33:06.515Z,1.92
2018-11-12T04:35:34.586Z,1.70
2018-11-12T04:38:02.657Z,1.92
2018-11-12T04:40:30.746Z,1.80
2018-11-12T04:42:58.901Z,2.80
2018-11-12T04:45:27.043Z,2.65
2018-11-12T04:47:55.347Z,3.25
2018-11-12T04:50:24.650Z,5.30
2018-11-12T04:52:53.234Z,3.62
2018-11-12T04:55:22.126Z,2.40
2018-11-12T04:57:50.191Z,3.02
2018-11-12T05:00:22.360Z,2.90
2018-11-12T05:02:50.534Z,3.08
2018-11-12T05:05:19.931Z,3.10
2018-11-12T05:07:48.107Z,3.70
2018-11-12T05:10:17.610Z,3.05
2018-11-12T05:12:46.398Z,3.40
2018-11-12T05:15:16.213Z,3.30
2018-11-12T05:17:44.283Z,3.35
2018-11-12T05:20:21.467Z,3.80
2018-11-12T05:22:49.532Z,3.92
2018-11-12T05:25:17.712Z,3.10
2018-11-12T05:27:45.881Z,3.90
2018-11-12T05:30:17.946Z,3.92
2018-11-12T05:32:46.116Z,3.70
2018-11-12T05:35:15.423Z,3.42
2018-11-12T05:37:43.835Z,6.17
2018-11-12T05:40:13.913Z,4.35
2018-11-12T05:42:42.393Z,5.65
2018-11-12T05:45:10.668Z,10.60
2018-11-12T05:47:39.150Z,7.65
2018-11-12T05:50:10.396Z,6.08
2018-11-12T05:52:38.457Z,6.35
2018-11-12T05:55:08.487Z,5.70
2018-11-12T05:57:36.858Z,5.28
2018-11-12T06:00:06.455Z,7.10
2018-11-12T06:02:34.732Z,6.60
2018-11-12T06:05:03.109Z,5.95
2018-11-12T06:07:31.401Z,5.80
2018-11-12T06:09:59.560Z,5.65
2018-11-12T06:12:28.041Z,5.30
2018-11-12T06:14:56.331Z,5.80
2018-11-12T06:17:24.483Z,5.75
2018-11-12T06:19:52.759Z,6.25
2018-11-12T06:22:21.051Z,9.28
2018-11-12T06:24:49.305Z,19.37
2018-11-12T06:27:17.482Z,7.05
2018-11-12T06:29:45.572Z,9.40
2018-11-12T06:32:13.614Z,11.90
2018-11-12T06:34:41.918Z,10.05
2018-11-12T06:37:10.195Z,9.75
2018-11-12T06:39:38.267Z,8.63
2018-11-12T06:42:06.329Z,7.50
2018-11-12T06:44:34.402Z,7.45
2018-11-12T06:47:02.471Z,8.38
2018-11-12T06:49:30.541Z,8.30
2018-11-12T06:52:01.078Z,9.40
2018-11-12T06:54:29.246Z,8.45
2018-11-12T06:56:57.429Z,5.53
2018-11-12T06:59:25.563Z,5.47
2018-11-12T07:01:53.833Z,5.28
2018-11-12T07:04:21.903Z,5.30
2018-11-12T07:06:50.064Z,4.65
2018-11-12T07:09:18.183Z,5.15
2018-11-12T07:11:46.352Z,5.35
2018-11-12T07:14:14.420Z,5.90
2018-11-12T07:16:42.594Z,5.83
2018-11-12T07:19:10.667Z,6.45
2018-11-12T07:21:38.840Z,6.40
2018-11-12T07:24:06.910Z,6.87
2018-11-12T07:26:34.984Z,8.03
2018-11-12T07:29:03.054Z,8.05
2018-11-12T07:31:31.284Z,8.13
2018-11-12T07:33:59.504Z,7.70
2018-11-12T07:36:27.469Z,8.35
2018-11-12T07:38:55.539Z,8.88
2018-11-12T07:41:23.711Z,7.65
2018-11-12T07:43:51.842Z,8.35
2018-11-12T07:46:19.957Z,8.50
2018-11-12T07:48:48.065Z,8.20
2018-11-12T07:51:16.454Z,8.40
2018-11-12T07:53:44.475Z,9.18
2018-11-12T07:56:12.687Z,8.15
2018-11-12T07:58:40.871Z,6.72
2018-11-12T08:01:08.996Z,8.90
2018-11-12T08:03:37.607Z,7.42
2018-11-12T08:06:05.954Z,8.48
2018-11-12T08:08:34.073Z,8.68
2018-11-12T08:11:02.198Z,8.30
2018-11-12T08:13:30.726Z,7.70
2018-11-12T08:15:58.900Z,7.80
2018-11-12T08:18:27.230Z,7.70
2018-11-12T08:20:55.239Z,7.20
2018-11-12T08:23:23.372Z,7.33
2018-11-12T08:25:51.441Z,6.92
2018-11-12T08:28:19.615Z,6.58
2018-11-12T08:30:47.685Z,6.42
2018-11-12T08:33:15.764Z,5.85
2018-11-12T08:35:45.005Z,5.28
2018-11-12T08:38:13.025Z,6.28
2018-11-12T08:40:41.238Z,6.85
2018-11-12T08:43:09.371Z,6.70
2018-11-12T08:45:37.447Z,6.25
2018-11-12T08:48:05.716Z,6.10
2018-11-12T08:50:33.787Z,6.30
2018-11-12T08:53:01.960Z,5.85
2018-11-12T08:55:30.831Z,6.33
2018-11-12T08:58:00.494Z,5.92
2018-11-12T09:00:28.834Z,7.00
2018-11-12T09:02:57.110Z,6.87
2018-11-12T09:05:26.649Z,6.55
2018-11-12T09:07:56.836Z,6.00
2018-11-12T09:10:26.475Z,6.00
2018-11-12T09:12:54.513Z,6.13
2018-11-12T09:15:22.590Z,5.63
2018-11-12T09:17:50.860Z,6.10
2018-11-12T09:20:20.261Z,6.63
2018-11-12T09:22:48.357Z,5.23
2018-11-12T09:25:17.631Z,5.17
2018-11-12T09:27:45.931Z,5.30
2018-11-12T09:30:16.536Z,5.00
2018-11-12T09:32:44.872Z,5.47
2018-11-12T09:35:14.113Z,5.60
2018-11-12T09:37:43.309Z,5.20
2018-11-12T09:40:13.735Z,5.40
2018-11-12T09:42:42.073Z,5.37
2018-11-12T09:45:11.111Z,4.93
2018-11-12T09:47:39.708Z,5.80
2018-11-12T09:50:10.628Z,5.73
2018-11-12T09:52:39.004Z,5.40
2018-11-12T09:55:10.248Z,5.10
2018-11-12T09:57:39.148Z,5.03
2018-11-12T10:00:09.401Z,5.40
2018-11-12T10:02:38.383Z,6.43
2018-11-12T10:05:08.148Z,5.03
2018-11-12T10:07:37.346Z,4.07
2018-11-12T10:10:07.830Z,4.00
2018-11-12T10:12:36.547Z,3.77
2018-11-12T10:15:04.093Z,3.00
2018-11-12T10:17:32.690Z,3.07
2018-11-12T10:19:58.123Z,3.07
2018-11-12T10:22:26.195Z,3.03
2018-11-12T10:24:54.368Z,2.27
2018-11-12T10:27:22.445Z,2.73
2018-11-12T10:29:50.614Z,2.90
2018-11-12T10:32:22.471Z,2.30
2018-11-12T10:34:50.935Z,2.37
2018-11-12T10:37:19.021Z,2.30
2018-11-12T10:39:47.111Z,2.30
2018-11-12T10:42:15.162Z,1.97
2018-11-12T10:44:43.249Z,4.97
2018-11-12T10:47:11.328Z,4.77
2018-11-12T10:49:39.368Z,4.47
2018-11-12T10:52:07.448Z,3.70
2018-11-12T10:54:35.615Z,2.70
2018-11-12T10:57:03.894Z,3.73
2018-11-12T10:59:32.078Z,5.90
2018-11-12T11:02:05.670Z,2.20
2018-11-12T11:04:33.847Z,2.17
2018-11-12T11:07:01.912Z,2.23
2018-11-12T11:09:30.085Z,2.30
2018-11-12T11:11:58.257Z,2.87
2018-11-12T11:14:26.329Z,3.03
2018-11-12T11:16:54.399Z,2.73
2018-11-12T11:19:22.573Z,2.80
2018-11-12T11:21:50.851Z,3.07
2018-11-12T11:24:18.918Z,2.83
2018-11-12T11:26:47.041Z,2.67
2018-11-12T11:29:15.165Z,2.47
2018-11-12T11:31:43.289Z,2.60
2018-11-12T11:34:11.413Z,3.00
2018-11-12T11:36:39.478Z,2.73
2018-11-12T11:39:08.366Z,2.40
2018-11-12T11:41:36.444Z,3.10
2018-11-12T11:44:04.995Z,2.80
2018-11-12T11:46:33.198Z,2.87
2018-11-12T11:49:09.558Z,3.17
2018-11-12T11:51:37.640Z,3.30
2018-11-12T11:54:05.700Z,3.23
2018-11-12T11:56:34.018Z,3.07
2018-11-12T11:59:02.152Z,3.10
2018-11-12T12:01:30.321Z,3.57
2018-11-12T12:03:58.390Z,3.47
2018-11-12T12:06:27.076Z,3.97
2018-11-12T12:08:55.243Z,3.73
2018-11-12T12:11:23.285Z,4.47
2018-11-12T12:13:51.493Z,3.97
2018-11-12T12:16:19.632Z,3.80
2018-11-12T12:18:47.700Z,3.80
2018-11-12T12:21:15.812Z,3.80
2018-11-12T12:23:43.845Z,3.57
2018-11-12T12:26:12.013Z,3.90
2018-11-12T12:28:40.329Z,4.87
2018-11-12T12:31:08.499Z,3.90
2018-11-12T12:33:36.573Z,4.30
2018-11-12T12:36:04.822Z,4.60
2018-11-12T12:38:32.921Z,4.27
2018-11-12T12:41:00.945Z,4.03
2018-11-12T12:43:29.019Z,5.47
2018-11-12T12:45:57.050Z,5.70
2018-11-12T12:48:25.304Z,5.93
2018-11-12T12:50:53.384Z,5.83
2018-11-12T12:53:21.550Z,5.60
2018-11-12T12:55:49.720Z,6.40
2018-11-12T12:58:18.106Z,6.50
2018-11-12T13:00:46.170Z,5.07
2018-11-12T13:03:14.238Z,5.53
2018-11-12T13:05:42.313Z,6.03
2018-11-12T13:08:10.382Z,6.10
2018-11-12T13:10:38.555Z,4.67
2018-11-12T13:13:06.624Z,4.50
2018-11-12T13:15:34.595Z,4.40
2018-11-12T13:18:02.874Z,4.13
2018-11-12T13:20:30.946Z,4.40
2018-11-12T13:22:59.116Z,4.90
2018-11-12T13:25:27.287Z,4.60
2018-11-12T13:27:55.356Z,4.20
2018-11-12T13:30:23.939Z,4.10
2018-11-12T13:32:52.359Z,4.60
2018-11-12T13:35:21.923Z,4.17
2018-11-12T13:37:50.096Z,4.13
2018-11-12T13:40:19.534Z,4.77
2018-11-12T13:42:49.414Z,4.67
2018-11-12T13:45:17.527Z,4.30
2018-11-12T13:47:46.269Z,3.70
2018-11-12T13:50:15.881Z,3.90
2018-11-12T13:52:44.361Z,3.40
2018-11-12T13:55:13.488Z,4.90
2018-11-12T13:57:41.742Z,4.73
2018-11-12T14:00:11.914Z,4.07
2018-11-12T14:02:40.534Z,3.90
2018-11-12T14:05:10.752Z,3.87
2018-11-12T14:07:38.835Z,4.50
2018-11-12T14:10:08.328Z,4.57
2018-11-12T14:12:38.037Z,4.33
2018-11-12T14:15:08.463Z,3.70
2018-11-12T14:17:36.842Z,4.00
2018-11-12T14:20:05.063Z,3.97
2018-11-12T14:22:33.191Z,4.20
2018-11-12T14:25:01.257Z,4.40
2018-11-12T14:27:29.385Z,5.33
2018-11-12T14:29:57.403Z,4.67
2018-11-12T14:32:25.493Z,4.63
2018-11-12T14:34:53.640Z,4.63
2018-11-12T14:37:21.819Z,4.90
2018-11-12T14:39:50.400Z,3.75
2018-11-12T14:42:18.574Z,4.33
2018-11-12T14:44:46.642Z,4.33
2018-11-12T14:47:14.817Z,4.05
2018-11-12T14:49:42.986Z,3.90
2018-11-12T14:52:11.058Z,4.25
2018-11-12T14:54:39.252Z,4.75
2018-11-12T14:57:07.815Z,5.28
2018-11-12T14:59:35.990Z,6.45
2018-11-12T15:02:04.572Z,7.33
2018-11-12T15:04:32.949Z,5.00
2018-11-12T15:07:01.132Z,3.95
2018-11-12T15:09:29.193Z,4.35
2018-11-12T15:11:57.365Z,4.45
2018-11-12T15:14:25.437Z,3.70
2018-11-12T15:16:53.611Z,4.80
2018-11-12T15:19:21.987Z,3.60
2018-11-12T15:21:50.262Z,3.52
2018-11-12T15:24:18.332Z,3.83
2018-11-12T15:26:46.404Z,3.67
2018-11-12T15:29:14.633Z,3.67
2018-11-12T15:31:43.161Z,3.95
2018-11-12T15:34:11.236Z,2.98
2018-11-12T15:36:39.328Z,3.22
2018-11-12T15:39:08.907Z,3.42
2018-11-12T15:41:37.078Z,3.60
2018-11-12T15:44:05.764Z,3.50
2018-11-12T15:46:34.548Z,4.00
2018-11-12T15:49:03.142Z,3.72
2018-11-12T15:51:31.512Z,5.10
2018-11-12T15:53:59.685Z,3.72
2018-11-12T15:56:27.821Z,7.42
2018-11-12T15:58:55.922Z,12.68
2018-11-12T16:01:24.101Z,5.33
2018-11-12T16:03:52.175Z,5.03
2018-11-12T16:06:20.266Z,4.75
2018-11-12T16:08:48.513Z,5.28
2018-11-12T16:11:16.784Z,5.30
2018-11-12T16:13:44.867Z,4.80
2018-11-12T16:16:13.132Z,8.15
2018-11-12T16:18:41.306Z,12.15
2018-11-12T16:21:09.386Z,12.15
2018-11-12T16:23:37.562Z,15.85
2018-11-12T16:26:06.759Z,17.57
2018-11-12T16:28:35.136Z,16.15
2018-11-12T16:31:03.309Z,13.10
2018-11-12T16:33:31.587Z,12.37
2018-11-12T16:35:59.758Z,11.75
2018-11-12T16:38:27.911Z,10.65
2018-11-12T16:40:56.118Z,8.48
2018-11-12T16:43:24.175Z,9.65
2018-11-12T16:45:52.436Z,9.90
2018-11-12T16:48:20.520Z,9.30
2018-11-12T16:50:48.697Z,9.43
2018-11-12T16:53:16.976Z,10.05
2018-11-12T16:55:45.737Z,9.40
2018-11-12T16:58:13.906Z,9.08
2018-11-12T17:00:42.072Z,11.35
2018-11-12T17:03:10.173Z,11.50
2018-11-12T17:05:38.318Z,10.23
2018-11-12T17:08:06.621Z,6.97
2018-11-12T17:10:34.796Z,6.62
2018-11-12T17:13:02.869Z,6.15
2018-11-12T17:15:31.140Z,6.12
2018-11-12T17:17:59.589Z,5.50
2018-11-12T17:20:27.692Z,8.70
2018-11-12T17:22:55.906Z,5.08
2018-11-12T17:25:24.516Z,9.10
2018-11-12T17:27:52.622Z,7.10
2018-11-12T17:30:21.615Z,7.97
2018-11-12T17:32:50.196Z,10.15
2018-11-12T17:35:19.570Z,8.70
2018-11-12T17:37:47.730Z,10.98
2018-11-12T17:40:24.139Z,16.70
2018-11-12T17:42:53.290Z,12.90
2018-11-12T17:45:23.865Z,21.70
2018-11-12T17:47:52.852Z,29.42
2018-11-12T17:50:21.334Z,14.90
2018-11-12T17:52:49.612Z,11.43
2018-11-12T17:55:19.217Z,13.15
2018-11-12T17:57:48.516Z,16.70
2018-11-12T18:00:21.810Z,14.87
2018-11-12T18:02:49.983Z,15.00
2018-11-12T18:05:18.051Z,16.23
2018-11-12T18:07:46.287Z,13.90
2018-11-12T18:10:15.224Z,15.43
2018-11-12T18:12:43.545Z,12.90
2018-11-12T18:15:16.429Z,13.95
2018-11-12T18:17:44.862Z,14.53
2018-11-12T18:20:16.617Z,11.78
2018-11-12T18:22:45.410Z,14.00
2018-11-12T18:25:14.336Z,11.63
2018-11-12T18:27:42.407Z,10.75
2018-11-12T18:30:15.697Z,9.30
2018-11-12T18:32:44.753Z,8.43
2018-11-12T18:35:13.068Z,8.10
2018-11-12T18:37:41.211Z,8.08
2018-11-12T18:40:11.052Z,9.43
2018-11-12T18:42:39.287Z,9.63
2018-11-12T18:45:09.714Z,9.95
2018-11-12T18:47:39.016Z,9.58
2018-11-12T18:50:09.682Z,9.63
2018-11-12T18:52:38.679Z,11.18
2018-11-12T18:55:08.039Z,13.50
2018-11-12T18:57:36.663Z,9.90
2018-11-12T19:00:05.719Z,8.55
2018-11-12T19:02:34.302Z,8.88
2018-11-12T19:05:02.937Z,10.48
2018-11-12T19:07:31.564Z,8.98
2018-11-12T19:09:59.943Z,8.48
2018-11-12T19:12:29.651Z,8.33
2018-11-12T19:14:57.825Z,9.03
2018-11-12T19:17:26.723Z,8.73
2018-11-12T19:19:54.988Z,9.45
2018-11-12T19:22:23.475Z,7.30
2018-11-12T19:24:53.395Z,5.87
2018-11-12T19:27:22.173Z,8.63
2018-11-12T19:29:53.008Z,9.90
2018-11-12T19:32:22.718Z,11.05
2018-11-12T19:34:52.527Z,8.05
2018-11-12T19:37:21.011Z,6.85
2018-11-12T19:39:52.367Z,7.90
2018-11-12T19:42:22.786Z,7.72
2018-11-12T19:44:53.634Z,6.65
2018-11-12T19:47:22.405Z,7.35
2018-11-12T19:49:51.711Z,7.50
2018-11-12T19:52:19.777Z,7.53
2018-11-12T19:54:48.152Z,7.65
2018-11-12T19:57:18.272Z,6.97
2018-11-12T19:59:46.547Z,5.55
2018-11-12T20:02:15.232Z,5.60
2018-11-12T20:04:43.926Z,6.95
2018-11-12T20:07:12.311Z,10.72
2018-11-12T20:09:40.674Z,7.80
2018-11-12T20:12:08.846Z,6.75
2018-11-12T20:14:36.917Z,7.45
2018-11-12T20:17:05.608Z,7.47
2018-11-12T20:19:33.876Z,7.65
2018-11-12T20:22:03.176Z,5.42
2018-11-12T20:24:31.352Z,5.78
2018-11-12T20:26:59.524Z,5.00
2018-11-12T20:29:28.312Z,5.45
2018-11-12T20:31:56.706Z,3.95
2018-11-12T20:34:25.005Z,4.45
2018-11-12T20:36:53.241Z,6.12
2018-11-12T20:39:21.309Z,4.40
2018-11-12T20:41:49.381Z,4.03
2018-11-12T20:44:17.760Z,4.15
2018-11-12T20:46:46.036Z,4.90
2018-11-12T20:49:15.332Z,4.78
2018-11-12T20:51:43.512Z,5.50
2018-11-12T20:54:11.572Z,4.22
2018-11-12T20:56:39.849Z,4.83
2018-11-12T20:59:07.932Z,4.70
2018-11-12T21:01:36.195Z,4.65
2018-11-12T21:04:04.581Z,4.40
2018-11-12T21:06:32.745Z,4.70
2018-11-12T21:09:00.825Z,4.15
2018-11-12T21:11:29.082Z,4.05
2018-11-12T21:13:57.275Z,5.35
2018-11-12T21:16:25.345Z,5.05
2018-11-12T21:18:53.501Z,4.62
2018-11-12T21:21:21.586Z,3.90
2018-11-12T21:23:49.657Z,3.98
2018-11-12T21:26:17.718Z,3.52
2018-11-12T21:28:45.838Z,3.95
2018-11-12T21:31:13.976Z,3.98
2018-11-12T21:33:42.044Z,3.70
2018-11-12T21:36:10.113Z,3.30
2018-11-12T21:38:38.266Z,3.80
2018-11-12T21:41:06.460Z,3.40
2018-11-12T21:43:34.656Z,3.50
2018-11-12T21:46:02.806Z,4.17
2018-11-12T21:48:30.852Z,4.00
2018-11-12T21:50:59.049Z,4.92
2018-11-12T21:53:27.096Z,4.00
2018-11-12T21:55:55.193Z,4.50
2018-11-12T21:58:23.393Z,3.72
2018-11-12T22:00:51.506Z,3.20
2018-11-12T22:03:19.608Z,3.62
2018-11-12T22:05:47.679Z,3.80
2018-11-12T22:08:15.921Z,3.25
2018-11-12T22:10:44.131Z,3.50
2018-11-12T22:13:12.207Z,4.03
2018-11-12T22:15:40.269Z,4.53
2018-11-12T22:18:08.305Z,4.53
2018-11-12T22:20:36.481Z,3.90
2018-11-12T22:23:04.892Z,3.30
2018-11-12T22:25:32.931Z,3.20
2018-11-12T22:28:01.055Z,3.55
2018-11-12T22:30:29.206Z,2.90
2018-11-12T22:32:57.275Z,2.25
2018-11-12T22:35:25.350Z,3.30
2018-11-12T22:37:53.418Z,2.30
2018-11-12T22:40:21.796Z,3.20
2018-11-12T22:42:50.888Z,3.25
2018-11-12T22:45:21.068Z,2.95
2018-11-12T22:47:49.491Z,2.42
2018-11-12T22:50:17.516Z,2.65
2018-11-12T22:52:45.938Z,2.27
2018-11-12T22:55:15.339Z,3.00
2018-11-12T22:57:43.465Z,3.10
2018-11-12T23:00:18.600Z,2.37
2018-11-12T23:02:47.027Z,2.80
2018-11-12T23:05:15.813Z,3.17
2018-11-12T23:07:44.653Z,2.22
2018-11-12T23:10:13.083Z,2.80
2018-11-12T23:12:41.454Z,3.17
2018-11-12T23:15:10.660Z,2.20
2018-11-12T23:17:39.038Z,2.70
2018-11-12T23:20:11.863Z,2.60
2018-11-12T23:22:40.505Z,3.10
2018-11-12T23:25:08.929Z,2.90
2018-11-12T23:27:37.052Z,2.72
2018-11-12T23:30:06.455Z,2.50
2018-11-12T23:32:34.525Z,2.50
2018-11-12T23:35:02.596Z,3.17
2018-11-12T23:37:30.666Z,2.75
2018-11-12T23:39:58.738Z,2.80
2018-11-12T23:42:26.908Z,2.70
2018-11-12T23:44:55.020Z,3.10
2018-11-12T23:47:23.096Z,2.87
2018-11-12T23:49:51.124Z,3.00
2018-11-12T23:52:19.195Z,2.95
2018-11-12T23:54:47.263Z,2.17
2018-11-12T23:57:15.335Z,2.45
2018-11-12T23:59:43.407Z,2.85
